Dades meteomassalio
Diari Summary for Febrer 4, 2018 Units:  Metric    English   Both
« Previous Day
Next Day »
Diari Semanal Mensual Anual Personalitzat
  Maxima: Minima: Mijana:
Temperatura: -17.8 °C -15.9 °C -15.2 °C
Rosada: -17.8 °C -17.4 °C -16.2 °C
Humitat: Humidity % 70 % 88 %
Velocitat del vent: 0 km/h 0 km/h 6 km/h
Racha vent: 0 km/h - -
Vent:- - SW
Pressio: 0 hPa 34256.2 hPa -
Pluja: 121.92 mm    
Historical Graphs
 
 
Tabular Data for Febrer 4, 2018
Time Temperature Dew Point Pressure Wind Wind Speed Wind Gust Humidity Rainfall Rate (Hourly) solar Conditions
-17.8 °C -17.8 °C 0 hPa Calm     Humidity % 0 mm SolarRadiationWatts/m^2 W/m2 Conditions
00:00 -14.1 °C -16.9 °C 34371.3 hPa NW 32.8 km/h 32.8 km/h 70 % 0 mm 0.0 W/m2 CLR
00:05 -14.1 °C -16.8 °C 34371.3 hPa NNW 29.8 km/h 29.8 km/h 71 % 0 mm 0.0 W/m2 CLR
00:10 -14.1 °C -16.7 °C 34371.3 hPa NNW 29.8 km/h 29.8 km/h 72 % 0 mm 0.0 W/m2 CLR
00:15 -14.1 °C -16.7 °C 34371.3 hPa NNW 38.8 km/h 38.8 km/h 72 % 0 mm 0.0 W/m2 CLR
00:20 -14.1 °C -16.6 °C 34371.3 hPa North 32.8 km/h 32.8 km/h 73 % 0 mm 0.0 W/m2 CLR
00:25 -14.1 °C -16.5 °C 34371.3 hPa North 35.7 km/h 35.7 km/h 74 % 0 mm 0.0 W/m2 CLR
00:30 -14.1 °C -16.3 °C 34371.3 hPa North 32.8 km/h 32.8 km/h 75 % 0 mm 0.0 W/m2 CLR
00:35 -14.1 °C -16.3 °C 34361.1 hPa NNW 35.7 km/h 35.7 km/h 75 % 0 mm 0.0 W/m2 CLR
00:40 -14.1 °C -16.3 °C 34361.1 hPa North 47.6 km/h 47.6 km/h 76 % 0 mm 0.0 W/m2 CLR
00:45 -14.1 °C -16.2 °C 34361.1 hPa NNW 35.7 km/h 35.7 km/h 77 % 0 mm 0.0 W/m2 CLR
00:50 -14.1 °C -16.2 °C 34361.1 hPa NNW 32.8 km/h 32.8 km/h 77 % 0 mm 0.0 W/m2 CLR
00:55 -13.8 °C -15.9 °C 34361.1 hPa NNW 38.8 km/h 38.8 km/h 77 % 0 mm 0.0 W/m2 CLR
01:00 -13.8 °C -15.9 °C 34361.1 hPa NW 32.8 km/h 32.8 km/h 77 % 0 mm 0.0 W/m2 CLR
01:05 -13.8 °C -15.9 °C 34361.1 hPa NNW 29.8 km/h 29.8 km/h 76 % 0 mm 0.0 W/m2 CLR
01:10 -13.8 °C -15.9 °C 34361.1 hPa NW 41.7 km/h 41.7 km/h 76 % 0 mm 0.0 W/m2 CLR
01:15 -13.8 °C -15.9 °C 34361.1 hPa NW 29.8 km/h 29.8 km/h 76 % 0 mm 0.0 W/m2 CLR
01:20 -13.8 °C -15.9 °C 34347.6 hPa NW 26.9 km/h 26.9 km/h 76 % 0 mm 0.0 W/m2 CLR
01:25 -13.8 °C -15.9 °C 34347.6 hPa NW 29.8 km/h 29.8 km/h 76 % 0 mm 0.0 W/m2 CLR
01:30 -13.8 °C -16.1 °C 34347.6 hPa NW 32.8 km/h 32.8 km/h 75 % 0 mm 0.0 W/m2 CLR
01:35 -13.8 °C -16.1 °C 34347.6 hPa WNW 29.8 km/h 29.8 km/h 75 % 0 mm 0.0 W/m2 CLR
01:40 -13.8 °C -16.1 °C 34337.4 hPa NW 32.8 km/h 32.8 km/h 75 % 0 mm 0.0 W/m2 CLR
01:45 -13.8 °C -16.1 °C 34337.4 hPa NW 29.8 km/h 29.8 km/h 75 % 0 mm 0.0 W/m2 CLR
01:51 -13.8 °C -15.9 °C 34337.4 hPa NW 17.9 km/h 17.9 km/h 76 % 0 mm 0.0 W/m2 CLR
01:56 -14.1 °C -16.3 °C 34337.4 hPa NW 17.9 km/h 17.9 km/h 76 % 0 mm 0.0 W/m2 CLR
02:01 -14.1 °C -16.3 °C 34337.4 hPa NW 23.8 km/h 23.8 km/h 76 % 0 mm 0.0 W/m2 CLR
02:06 -14.1 °C -16.2 °C 34327.3 hPa NW 23.8 km/h 23.8 km/h 77 % 0 mm 0.0 W/m2 CLR
02:11 -14.4 °C -16.4 °C 34327.3 hPa NW 23.8 km/h 23.8 km/h 77 % 0 mm 0.0 W/m2 CLR
02:16 -14.4 °C -16.3 °C 34327.3 hPa NW 29.8 km/h 29.8 km/h 78 % 0 mm 0.0 W/m2 CLR
02:21 -14.4 °C -16.3 °C 34313.7 hPa NW 28.5 km/h 28.5 km/h 78 % 0 mm 0.0 W/m2 CLR
02:26 -14.7 °C -16.6 °C 34313.7 hPa NW 23.8 km/h 23.8 km/h 79 % 0 mm 0.0 W/m2 CLR
02:31 -14.7 °C -16.6 °C 34313.7 hPa NW 23.8 km/h 23.8 km/h 79 % 0 mm 0.0 W/m2 CLR
02:36 -14.7 °C -16.6 °C 34313.7 hPa WNW 20.9 km/h 20.9 km/h 79 % 0 mm 0.0 W/m2 CLR
02:41 -15 °C -16.8 °C 34313.7 hPa NW 20.9 km/h 20.9 km/h 79 % 0 mm 0.0 W/m2 CLR
02:46 -15 °C -16.8 °C 34313.7 hPa NW 12.9 km/h 12.9 km/h 79 % 0 mm 0.0 W/m2 CLR
02:51 -15 °C -16.8 °C 34313.7 hPa NW 18.2 km/h 18.2 km/h 79 % 0 mm 0.0 W/m2 CLR
02:56 -15.3 °C -17.1 °C 34313.7 hPa NW 17.9 km/h 17.9 km/h 80 % 0 mm 0.0 W/m2 CLR
03:01 -15.3 °C -17.1 °C 34313.7 hPa NW 23.8 km/h 23.8 km/h 80 % 0 mm 0.0 W/m2 CLR
03:06 -15.6 °C -17.3 °C 34313.7 hPa NW 15 km/h 15 km/h 80 % 0 mm 0.0 W/m2 CLR
03:11 -15.6 °C -17.3 °C 34313.7 hPa WNW 15.6 km/h 15.6 km/h 80 % 0 mm 0.0 W/m2 CLR
03:16 -15.3 °C -17 °C 34303.6 hPa WSW 17.9 km/h 17.9 km/h 81 % 0 mm 0.0 W/m2 CLR
03:21 -15 °C -16.7 °C 34303.6 hPa West 10.3 km/h 10.3 km/h 81 % 0 mm 0.0 W/m2 CLR
03:26 -15 °C -16.7 °C 34303.6 hPa WNW 11.9 km/h 11.9 km/h 81 % 0 mm 0.0 W/m2 CLR
03:31 -15.3 °C -16.9 °C 34303.6 hPa WNW 15 km/h 15 km/h 82 % 0 mm 0.0 W/m2 CLR
03:36 -15.6 °C -17.2 °C 34313.7 hPa WNW 9 km/h 9 km/h 82 % 0 mm 0.0 W/m2 CLR
03:41 -15.9 °C -17.4 °C 34313.7 hPa NW 15 km/h 15 km/h 82 % 0 mm 0.0 W/m2 CLR
03:46 -15.9 °C -17.4 °C 34313.7 hPa Calm     82 % 0 mm 0.0 W/m2 CLR
03:51 -15.9 °C -17.4 °C 34303.6 hPa West 6 km/h 6 km/h 82 % 0 mm 0.0 W/m2 CLR
03:56 -15.6 °C -17.2 °C 34303.6 hPa Calm     82 % 0 mm 0.0 W/m2 CLR
04:01 -15.9 °C -17.4 °C 34303.6 hPa Calm     83 % 0 mm 0.0 W/m2 CLR
04:06 -15.9 °C -17.4 °C 34313.7 hPa Calm     83 % 0 mm 0.0 W/m2 CLR
04:11 -15.9 °C -17.3 °C 34313.7 hPa Calm     84 % 0 mm 0.0 W/m2 CLR
04:16 -15.9 °C -17.3 °C 34313.7 hPa Calm     84 % 0 mm 0.0 W/m2 CLR
04:21 -15.9 °C -17.2 °C 34313.7 hPa Calm     85 % 0 mm 0.0 W/m2 CLR
04:26 -15.9 °C -17.2 °C 34313.7 hPa Calm     85 % 0 mm 0.0 W/m2 CLR
04:31 -15.9 °C -17.2 °C 34313.7 hPa Calm     85 % 0 mm 0.0 W/m2 CLR
04:36 -15.9 °C -17.2 °C 34313.7 hPa Calm     85 % 0 mm 0.0 W/m2 CLR
04:41 -15.9 °C -17.2 °C 34303.6 hPa Calm     85 % 0 mm 0.0 W/m2 CLR
04:46 -15.9 °C -17.2 °C 34303.6 hPa Calm     85 % 0 mm 0.0 W/m2 CLR
04:51 -15.9 °C -17.2 °C 34313.7 hPa Calm     85 % 0 mm 0.0 W/m2 CLR
04:56 -15.9 °C -17.1 °C 34313.7 hPa Calm     86 % 0 mm 0.0 W/m2 CLR
05:01 -15.9 °C -17.1 °C 34313.7 hPa Calm     86 % 0 mm 0.0 W/m2 CLR
05:06 -15.9 °C -17.1 °C 34313.7 hPa Calm     86 % 0 mm 0.0 W/m2 CLR
05:11 -15.9 °C -17.1 °C 34313.7 hPa Calm     86 % 0 mm 0.0 W/m2 CLR
05:16 -15.9 °C -17.1 °C 34313.7 hPa Calm     86 % 0 mm 0.0 W/m2 CLR
05:21 -15.9 °C -17.1 °C 34313.7 hPa Calm     86 % 0 mm 0.0 W/m2 CLR
05:26 -15.9 °C -17.1 °C 34313.7 hPa Calm     86 % 0 mm 0.0 W/m2 CLR
05:31 -15.9 °C -17.1 °C 34313.7 hPa Calm     86 % 0 mm 0.0 W/m2 CLR
05:36 -15.9 °C -17 °C 34313.7 hPa Calm     87 % 0 mm 0.0 W/m2 CLR
05:41 -15.9 °C -17 °C 34313.7 hPa Calm     87 % 0 mm 0.0 W/m2 CLR
05:46 -15.9 °C -16.9 °C 34313.7 hPa Calm     88 % 0 mm 0.0 W/m2 CLR
05:51 -15.6 °C -16.7 °C 34313.7 hPa Calm     87 % 0 mm 0.0 W/m2 CLR
05:56 -15.6 °C -16.7 °C 34313.7 hPa Calm     87 % 0 mm 0.0 W/m2 CLR
06:01 -15.6 °C -16.6 °C 34313.7 hPa Calm     88 % 0 mm 0.0 W/m2 CLR
06:06 -15.6 °C -16.6 °C 34313.7 hPa Calm     88 % 0 mm 0.0 W/m2 CLR
06:11 -15.9 °C -16.9 °C 34313.7 hPa Calm     88 % 0 mm 0.0 W/m2 CLR
06:16 -15.9 °C -16.9 °C 34313.7 hPa Calm     88 % 0 mm 0.0 W/m2 CLR
06:21 -15.9 °C -16.8 °C 34313.7 hPa Calm     89 % 0 mm 0.0 W/m2 CLR
06:26 -15.9 °C -16.8 °C 34313.7 hPa Calm     89 % 0 mm 0.0 W/m2 CLR
06:31 -15.9 °C -16.8 °C 34313.7 hPa Calm     89 % 0 mm 0.0 W/m2 CLR
06:36 -15.9 °C -16.8 °C 34313.7 hPa Calm     89 % 0 mm 0.0 W/m2 CLR
06:41 -15.9 °C -16.8 °C 34313.7 hPa Calm     89 % 0 mm 0.0 W/m2 CLR
06:46 -15.9 °C -16.8 °C 34313.7 hPa Calm     89 % 0 mm 0.0 W/m2 CLR
06:51 -15.9 °C -16.8 °C 34313.7 hPa Calm     89 % 0 mm 0.0 W/m2 CLR
06:56 -15.9 °C -16.8 °C 34313.7 hPa Calm     89 % 0 mm 0.0 W/m2 CLR
07:01 -15.9 °C -16.8 °C 34313.7 hPa Calm     89 % 0 mm 0.0 W/m2 CLR
07:06 -15.9 °C -16.8 °C 34313.7 hPa Calm     89 % 0 mm 0.0 W/m2 CLR
07:11 -15.9 °C -16.8 °C 34313.7 hPa Calm     89 % 0 mm 0.0 W/m2 CLR
07:16 -15.9 °C -16.8 °C 34313.7 hPa Calm     89 % 0 mm 0.0 W/m2 CLR
07:21 -15.9 °C -16.8 °C 34313.7 hPa Calm     89 % 0 mm 0.0 W/m2 CLR
07:26 -15.9 °C -16.8 °C 34313.7 hPa Calm     89 % 0 mm 0.0 W/m2 CLR
07:31 -15.9 °C -16.8 °C 34313.7 hPa Calm     89 % 0 mm 0.0 W/m2 CLR
07:36 -15.9 °C -16.9 °C 34313.7 hPa North 9 km/h 9 km/h 88 % 0 mm 0.0 W/m2 CLR
07:41 -15.9 °C -17 °C 34313.7 hPa North 20.8 km/h 20.8 km/h 87 % 0 mm 0.0 W/m2 CLR
07:46 -15.9 °C -17.1 °C 34313.7 hPa Calm     86 % 0 mm 0.0 W/m2 CLR
07:51 -15.9 °C -17.2 °C 34313.7 hPa North 26.9 km/h 26.9 km/h 85 % 0 mm 0.0 W/m2 CLR
07:56 -15.9 °C -17.2 °C 34313.7 hPa NNE 23.8 km/h 23.8 km/h 85 % 0 mm 0.0 W/m2 CLR
08:02 -15.6 °C -16.9 °C 34313.7 hPa North 29.8 km/h 29.8 km/h 85 % 0 mm 0.0 W/m2 OVC
08:07 -15.6 °C -16.9 °C 34313.7 hPa North 23.8 km/h 23.8 km/h 85 % 0 mm 0.0 W/m2 OVC
08:12 -15.6 °C -16.8 °C 34313.7 hPa NNW 20.9 km/h 20.9 km/h 86 % 0 mm 0.0 W/m2 OVC
08:17 -15.6 °C -16.8 °C 34313.7 hPa North 26.9 km/h 26.9 km/h 86 % 0 mm 0.0 W/m2 OVC
08:22 -15.3 °C -16.5 °C 34313.7 hPa North 17.9 km/h 17.9 km/h 86 % 0 mm 5.0 W/m2 OVC
08:27 -15.3 °C -16.4 °C 34313.7 hPa Calm     87 % 7.62 mm 7.0 W/m2 RA
08:32 -15.3 °C -16.4 °C 34313.7 hPa Calm     87 % 7.62 mm 11.0 W/m2 BKN
08:37 -15.3 °C -16.4 °C 34313.7 hPa North 17.9 km/h 17.9 km/h 87 % 7.62 mm 12.0 W/m2 BKN
08:42 -15 °C -16.1 °C 34313.7 hPa Calm     87 % 7.62 mm 16.0 W/m2 BKN
08:47 -15 °C -16 °C 34313.7 hPa Calm     88 % 7.62 mm 21.0 W/m2 BKN
08:52 -15 °C -16 °C 34313.7 hPa Calm     88 % 7.62 mm 33.0 W/m2 BKN
08:57 -15 °C -16 °C 34313.7 hPa Calm     88 % 7.62 mm 40.0 W/m2 BKN
09:02 -15 °C -16 °C 34313.7 hPa Calm     88 % 7.62 mm 47.0 W/m2 SCT
09:07 -15 °C -15.9 °C 34327.3 hPa Calm     89 % 7.62 mm 56.0 W/m2 SCT
09:12 -15 °C -16 °C 34327.3 hPa Calm     88 % 7.62 mm 60.0 W/m2 SCT
09:17 -15 °C -15.9 °C 34327.3 hPa Calm     89 % 7.62 mm 63.0 W/m2 SCT
09:22 -15 °C -15.9 °C 34327.3 hPa Calm     89 % 7.62 mm 54.0 W/m2 SCT
09:27 -15 °C -15.9 °C 34327.3 hPa Calm     89 % 0 mm 58.0 W/m2 SCT
09:32 -15 °C -15.9 °C 34327.3 hPa Calm     89 % 0 mm 67.0 W/m2 SCT
09:37 -15 °C -15.9 °C 34327.3 hPa Calm     89 % 0 mm 67.0 W/m2 FEW
09:42 -15 °C -15.9 °C 34327.3 hPa Calm     89 % 0 mm 72.0 W/m2 FEW
09:47 -15 °C -15.9 °C 34327.3 hPa Calm     89 % 0 mm 79.0 W/m2 FEW
09:52 -15 °C -15.9 °C 34327.3 hPa Calm     89 % 0 mm 76.0 W/m2 FEW
09:57 -15 °C -15.9 °C 34327.3 hPa Calm     89 % 0 mm 63.0 W/m2 FEW
10:02 -15 °C -15.9 °C 34327.3 hPa Calm     89 % 0 mm 54.0 W/m2 FEW
10:07 -15 °C -15.9 °C 34327.3 hPa Calm     89 % 0 mm 63.0 W/m2 SCT
10:12 -15 °C -15.9 °C 34327.3 hPa North 17.9 km/h 17.9 km/h 89 % 0 mm 53.0 W/m2 SCT
10:17 -15 °C -15.9 °C 34327.3 hPa North 15 km/h 15 km/h 89 % 0 mm 42.0 W/m2 SCT
10:22 -15 °C -15.9 °C 34327.3 hPa NNE 20.8 km/h 20.8 km/h 89 % 0 mm 44.0 W/m2 BKN
10:27 -15 °C -15.9 °C 34327.3 hPa Calm     89 % 0 mm 37.0 W/m2 BKN
10:32 -15 °C -15.9 °C 34327.3 hPa Calm     89 % 0 mm 33.0 W/m2 BKN
10:37 -15 °C -15.9 °C 34327.3 hPa ENE 15.6 km/h 15.6 km/h 89 % 0 mm 32.0 W/m2 BKN
10:42 -15 °C -15.9 °C 34337.4 hPa NNE 17.9 km/h 17.9 km/h 89 % 7.62 mm 32.0 W/m2 RA
10:47 -15 °C -15.8 °C 34337.4 hPa Calm     90 % 7.62 mm 37.0 W/m2 BKN
10:52 -15 °C -15.8 °C 34337.4 hPa Calm     90 % 7.62 mm 49.0 W/m2 BKN
10:57 -15 °C -15.8 °C 34337.4 hPa NNE 10.3 km/h 10.3 km/h 90 % 7.62 mm 58.0 W/m2 SCT
11:02 -15 °C -15.8 °C 34337.4 hPa NNE 15 km/h 15 km/h 90 % 12.7 mm 72.0 W/m2 RA
11:07 -15 °C -15.8 °C 34337.4 hPa Calm     90 % 12.7 mm 76.0 W/m2 FEW
11:12 -15 °C -15.8 °C 34337.4 hPa Calm     90 % 12.7 mm 93.0 W/m2 FEW
11:17 -15 °C -15.8 °C 34337.4 hPa Calm     90 % 12.7 mm 79.0 W/m2 FEW
11:22 -15 °C -15.8 °C 34337.4 hPa Calm     90 % 12.7 mm 79.0 W/m2 RA
11:27 -15 °C -15.8 °C 34337.4 hPa Calm     90 % 12.7 mm 90.0 W/m2 FEW
11:32 -15 °C -15.7 °C 34337.4 hPa Calm     91 % 12.7 mm 102.0 W/m2 CLR
11:37 -15 °C -15.7 °C 34337.4 hPa Calm     91 % 12.7 mm 114.0 W/m2 CLR
11:42 -15 °C -15.7 °C 34337.4 hPa Calm     91 % 12.7 mm 125.0 W/m2 CLR
11:47 -15 °C -15.7 °C 34337.4 hPa Calm     91 % 12.7 mm 135.0 W/m2 RA
11:52 -15 °C -15.7 °C 34337.4 hPa Calm     91 % 12.7 mm 146.0 W/m2 CLR
11:57 -15 °C -15.7 °C 34337.4 hPa Calm     91 % 12.7 mm 146.0 W/m2 CLR
12:02 -15 °C -15.7 °C 34337.4 hPa Calm     91 % 12.7 mm 155.0 W/m2 CLR
12:07 -14.7 °C -15.4 °C 34337.4 hPa Calm     91 % 12.7 mm 176.0 W/m2 CLR
12:12 -14.7 °C -15.4 °C 34337.4 hPa Calm     91 % 12.7 mm 195.0 W/m2 CLR
12:17 -14.7 °C -15.4 °C 34337.4 hPa Calm     91 % 12.7 mm 236.0 W/m2 RA
12:22 -14.7 °C -15.4 °C 34337.4 hPa Calm     91 % 12.7 mm 250.0 W/m2 CLR
12:27 -14.7 °C -15.4 °C 34337.4 hPa Calm     91 % 12.7 mm 232.0 W/m2 CLR
12:32 -14.7 °C -15.5 °C 34337.4 hPa Calm     90 % 12.7 mm 155.0 W/m2 RA
12:37 -14.7 °C -15.5 °C 34327.3 hPa Calm     90 % 12.7 mm 144.0 W/m2 CLR
12:42 -14.7 °C -15.5 °C 34327.3 hPa Calm     90 % 12.7 mm 162.0 W/m2 CLR
12:47 -14.7 °C -15.5 °C 34327.3 hPa Calm     90 % 12.7 mm 172.0 W/m2 CLR
12:52 -14.7 °C -15.5 °C 34327.3 hPa Calm     90 % 12.7 mm 141.0 W/m2 CLR
12:57 -14.7 °C -15.5 °C 34327.3 hPa Calm     90 % 12.7 mm 91.0 W/m2 RA
13:02 -14.7 °C -15.5 °C 34327.3 hPa Calm     90 % 12.7 mm 67.0 W/m2 CLR
13:07 -14.7 °C -15.5 °C 34327.3 hPa Calm     90 % 12.7 mm 88.0 W/m2 FEW
13:12 -14.7 °C -15.5 °C 34327.3 hPa SW 9 km/h 9 km/h 90 % 20.32 mm 137.0 W/m2 RA
13:17 -14.7 °C -15.5 °C 34313.7 hPa SW 9 km/h 9.8 km/h 90 % 12.7 mm 181.0 W/m2 CLR
13:23 -14.7 °C -15.5 °C 34313.7 hPa SW 11.9 km/h 11.9 km/h 90 % 12.7 mm 190.0 W/m2 CLR
13:27 -14.7 °C -15.5 °C 34313.7 hPa SW 9 km/h 9 km/h 90 % 20.32 mm 188.0 W/m2 RA
13:32 -14.7 °C -15.5 °C 34313.7 hPa SW 3.1 km/h 3.1 km/h 90 % 12.7 mm 199.0 W/m2 CLR
13:37 -14.7 °C -15.5 °C 34303.6 hPa Calm     90 % 12.7 mm 213.0 W/m2 CLR
13:42 -14.7 °C -15.5 °C 34303.6 hPa Calm     90 % 12.7 mm 202.0 W/m2 CLR
13:48 -14.7 °C -15.5 °C 34303.6 hPa Calm     90 % 12.7 mm 193.0 W/m2 CLR
13:53 -14.7 °C -15.5 °C 34303.6 hPa Calm     90 % 12.7 mm 179.0 W/m2 CLR
13:58 -14.7 °C -15.5 °C 34303.6 hPa Calm     90 % 12.7 mm 192.0 W/m2 CLR
14:03 -14.7 °C -15.5 °C 34303.6 hPa Calm     90 % 12.7 mm 146.0 W/m2 CLR
14:08 -14.7 °C -15.6 °C 34303.6 hPa Calm     89 % 12.7 mm 128.0 W/m2 CLR
14:13 -14.7 °C -15.6 °C 34293.4 hPa Calm     89 % 7.62 mm 104.0 W/m2 CLR
14:18 -14.7 °C -15.5 °C 34293.4 hPa Calm     90 % 12.7 mm 76.0 W/m2 RA
14:23 -14.7 °C -15.5 °C 34293.4 hPa Calm     90 % 7.62 mm 90.0 W/m2 FEW
14:28 -14.7 °C -15.5 °C 34293.4 hPa Calm     90 % 12.7 mm 111.0 W/m2 RA
14:33 -14.7 °C -15.5 °C 34279.9 hPa Calm     90 % 12.7 mm 105.0 W/m2 CLR
14:38 -15 °C -15.8 °C 34279.9 hPa Calm     90 % 12.7 mm 109.0 W/m2 RA
14:43 -15 °C -15.8 °C 34279.9 hPa Calm     90 % 20.32 mm 132.0 W/m2 RA
14:48 -15 °C -15.8 °C 34279.9 hPa Calm     90 % 20.32 mm 120.0 W/m2 CLR
14:53 -15 °C -15.8 °C 34279.9 hPa Calm     90 % 20.32 mm 105.0 W/m2 CLR
14:58 -15 °C -15.8 °C 34269.7 hPa Calm     90 % 20.32 mm 130.0 W/m2 CLR
15:03 -15 °C -15.8 °C 34269.7 hPa Calm     90 % 20.32 mm 148.0 W/m2 CLR
15:08 -15 °C -15.8 °C 34269.7 hPa Calm     90 % 20.32 mm 153.0 W/m2 CLR
15:13 -14.7 °C -15.4 °C 34269.7 hPa Calm     91 % 20.32 mm 151.0 W/m2 CLR
15:18 -14.7 °C -15.4 °C 34269.7 hPa Calm     91 % 12.7 mm 148.0 W/m2 CLR
15:23 -14.7 °C -15.4 °C 34269.7 hPa Calm     91 % 12.7 mm 139.0 W/m2 CLR
15:28 -14.7 °C -15.5 °C 34269.7 hPa Calm     90 % 12.7 mm 128.0 W/m2 CLR
15:33 -14.7 °C -15.5 °C 34269.7 hPa ENE 9 km/h 9 km/h 90 % 12.7 mm 120.0 W/m2 CLR
15:38 -14.7 °C -15.5 °C 34269.7 hPa Calm     90 % 7.62 mm 114.0 W/m2 CLR
15:43 -14.7 °C -15.5 °C 34269.7 hPa NE 3.1 km/h   90 % 0 mm 114.0 W/m2 CLR
15:48 -14.7 °C -15.4 °C 34269.7 hPa Calm     91 % 0 mm 120.0 W/m2 CLR
15:53 -14.7 °C -15.5 °C 34256.2 hPa ENE 9 km/h 9 km/h 90 % 0 mm 111.0 W/m2 CLR
15:58 -14.7 °C -15.4 °C 34256.2 hPa ENE 6 km/h 6 km/h 91 % 0 mm 105.0 W/m2 CLR
16:03 -14.7 °C -15.4 °C 34256.2 hPa Calm     91 % 0 mm 113.0 W/m2 CLR
16:08 -14.7 °C -15.4 °C 34256.2 hPa Calm     91 % 0 mm 107.0 W/m2 CLR
16:13 -14.7 °C -15.4 °C 34256.2 hPa ENE 3.1 km/h 3.1 km/h 91 % 0 mm 104.0 W/m2 CLR
16:18 -14.7 °C -15.4 °C 34256.2 hPa ENE 6 km/h 6 km/h 91 % 0 mm 91.0 W/m2 CLR
16:23 -14.7 °C -15.4 °C 34256.2 hPa East 3.1 km/h 3.1 km/h 91 % 0 mm 100.0 W/m2 CLR
16:28 -14.7 °C -15.4 °C 34269.7 hPa Calm     91 % 0 mm 97.0 W/m2 CLR
16:33 -14.7 °C -15.4 °C 34256.2 hPa Calm     91 % 0 mm 76.0 W/m2 CLR
16:38 -14.7 °C -15.4 °C 34256.2 hPa ENE 9 km/h 9 km/h 91 % 0 mm 63.0 W/m2 FEW
16:43 -14.7 °C -15.4 °C 34269.7 hPa ENE 3.1 km/h   91 % 0 mm 67.0 W/m2 FEW
16:48 -14.7 °C -15.4 °C 34269.7 hPa Calm     91 % 0 mm 69.0 W/m2 FEW
16:53 -14.7 °C -15.4 °C 34269.7 hPa Calm     91 % 0 mm 40.0 W/m2 SCT
16:58 -15 °C -15.7 °C 34269.7 hPa Calm     91 % 0 mm 33.0 W/m2 SCT
17:03 -15 °C -15.7 °C 34269.7 hPa Calm     91 % 0 mm 21.0 W/m2 BKN
17:08 -15 °C -15.7 °C 34269.7 hPa East 6 km/h 6 km/h 91 % 0 mm 16.0 W/m2 BKN
17:13 -15 °C -15.7 °C 34269.7 hPa ENE 6 km/h 6 km/h 91 % 0 mm 14.0 W/m2 BKN
17:18 -15 °C -15.7 °C 34269.7 hPa Calm     91 % 0 mm 12.0 W/m2 BKN
17:23 -15 °C -15.7 °C 34269.7 hPa Calm     91 % 0 mm 11.0 W/m2 BKN
17:28 -15 °C -15.7 °C 34269.7 hPa ENE 9 km/h 9 km/h 91 % 0 mm 9.0 W/m2 BKN
17:33 -15 °C -15.7 °C 34269.7 hPa ENE 9 km/h 9 km/h 91 % 0 mm 7.0 W/m2 BKN
17:38 -15 °C -15.7 °C 34269.7 hPa ENE 6 km/h 6 km/h 91 % 0 mm 7.0 W/m2 BKN
17:44 -15 °C -15.7 °C 34269.7 hPa ENE 6 km/h 6 km/h 91 % 7.62 mm 7.0 W/m2 RA
17:49 -15 °C -15.7 °C 34269.7 hPa East 6 km/h 6 km/h 91 % 7.62 mm 7.0 W/m2 BKN
17:54 -15 °C -15.7 °C 34269.7 hPa ENE 6 km/h   91 % 7.62 mm 7.0 W/m2 BKN
17:59 -15 °C -15.7 °C 34269.7 hPa East 6 km/h   92 % 7.62 mm 5.0 W/m2 OVC
18:04 -15.3 °C -15.9 °C 34269.7 hPa East 6 km/h 6 km/h 92 % 7.62 mm 0.0 W/m2 OVC
18:09 -15.3 °C -15.9 °C 34269.7 hPa East 5.1 km/h 5.1 km/h 92 % 12.7 mm 0.0 W/m2 RA
18:14 -15.3 °C -15.9 °C 34269.7 hPa Calm     92 % 12.7 mm 0.0 W/m2 RA
18:19 -15.3 °C -15.9 °C 34269.7 hPa East 3.1 km/h 3.1 km/h 92 % 12.7 mm 0.0 W/m2
18:24 -15.3 °C -15.9 °C 34269.7 hPa Calm     92 % 20.32 mm 0.0 W/m2 RA
18:29 -15.3 °C -15.9 °C 34269.7 hPa Calm     92 % 25.4 mm 0.0 W/m2 RA
18:34 -15.3 °C -15.9 °C 34269.7 hPa Calm     92 % 25.4 mm 0.0 W/m2
18:39 -15.3 °C -15.9 °C 34269.7 hPa Calm     92 % 25.4 mm 0.0 W/m2 CLR
18:44 -15.3 °C -15.9 °C 34279.9 hPa Calm     92 % 20.32 mm 0.0 W/m2 CLR
18:49 -15.3 °C -15.9 °C 34279.9 hPa Calm     92 % 20.32 mm 0.0 W/m2 CLR
18:54 -15.3 °C -15.9 °C 34279.9 hPa Calm     92 % 20.32 mm 0.0 W/m2 CLR
18:59 -15.3 °C -15.9 °C 34279.9 hPa Calm     92 % 25.4 mm 0.0 W/m2 RA
19:04 -15.3 °C -15.9 °C 34279.9 hPa Calm     92 % 25.4 mm 0.0 W/m2 CLR
19:09 -15.3 °C -15.9 °C 34279.9 hPa Calm     92 % 25.4 mm 0.0 W/m2 RA
19:14 -15.3 °C -15.9 °C 34279.9 hPa Calm     92 % 20.32 mm 0.0 W/m2
19:20 -15.3 °C -15.9 °C 34279.9 hPa Calm     92 % 20.32 mm 0.0 W/m2 CLR
19:25 -15.3 °C -15.9 °C 34279.9 hPa Calm     92 % 12.7 mm 0.0 W/m2 CLR
19:30 -15.3 °C -15.9 °C 34279.9 hPa Calm     92 % 12.7 mm 0.0 W/m2 RA
19:35 -15.3 °C -15.9 °C 34279.9 hPa Calm     92 % 12.7 mm 0.0 W/m2
19:40 -15.3 °C -15.9 °C 34279.9 hPa Calm     92 % 12.7 mm 0.0 W/m2 CLR
19:45 -15.3 °C -15.9 °C 34279.9 hPa Calm     92 % 20.32 mm 0.0 W/m2 RA
19:50 -15.3 °C -15.9 °C 34293.4 hPa Calm     92 % 20.32 mm 0.0 W/m2
19:55 -15.3 °C -15.9 °C 34279.9 hPa Calm     92 % 12.7 mm 0.0 W/m2 CLR
20:00 -15.3 °C -15.9 °C 34279.9 hPa Calm     92 % 12.7 mm 0.0 W/m2 CLR
20:05 -15.3 °C -15.9 °C 34279.9 hPa Calm     92 % 12.7 mm 0.0 W/m2 CLR
20:10 -15.3 °C -15.9 °C 34279.9 hPa Calm     92 % 12.7 mm 0.0 W/m2 CLR
20:15 -15.3 °C -15.9 °C 34279.9 hPa Calm     92 % 12.7 mm 0.0 W/m2 CLR
20:20 -15.6 °C -16.3 °C 34279.9 hPa Calm     92 % 12.7 mm 0.0 W/m2 CLR
20:25 -15.6 °C -16.3 °C 34279.9 hPa Calm     92 % 12.7 mm 0.0 W/m2 CLR
20:30 -15.6 °C -16.3 °C 34279.9 hPa Calm     92 % 7.62 mm 0.0 W/m2 CLR
20:35 -15.6 °C -16.3 °C 34279.9 hPa Calm     92 % 7.62 mm 0.0 W/m2 CLR
20:40 -15.6 °C -16.2 °C 34279.9 hPa Calm     93 % 7.62 mm 0.0 W/m2 CLR
20:45 -15.6 °C -16.3 °C 34279.9 hPa Calm     92 % 0 mm 0.0 W/m2 CLR
20:50 -15.6 °C -16.2 °C 34279.9 hPa Calm     93 % 0 mm 0.0 W/m2 CLR
20:55 -15.6 °C -16.2 °C 34279.9 hPa Calm     93 % 0 mm 0.0 W/m2 CLR
21:00 -15.6 °C -16.2 °C 34293.4 hPa Calm     93 % 0 mm 0.0 W/m2 CLR
21:05 -15.6 °C -16.2 °C 34293.4 hPa Calm     93 % 0 mm 0.0 W/m2 CLR
21:10 -15.6 °C -16.2 °C 34293.4 hPa Calm     93 % 0 mm 0.0 W/m2 CLR
21:15 -15.6 °C -16.2 °C 34279.9 hPa Calm     93 % 0 mm 0.0 W/m2 CLR
21:20 -15.6 °C -16.2 °C 34279.9 hPa Calm     93 % 0 mm 0.0 W/m2 CLR
21:25 -15.6 °C -16.2 °C 34279.9 hPa Calm     93 % 0 mm 0.0 W/m2 CLR
21:30 -15.6 °C -16.2 °C 34279.9 hPa Calm     93 % 0 mm 0.0 W/m2 CLR
21:35 -15.6 °C -16.2 °C 34293.4 hPa Calm     93 % 0 mm 0.0 W/m2 CLR
21:40 -15.6 °C -16.2 °C 34293.4 hPa Calm     93 % 0 mm 0.0 W/m2 CLR
21:45 -15.6 °C -16.2 °C 34293.4 hPa Calm     93 % 0 mm 0.0 W/m2 CLR
21:50 -15.6 °C -16.2 °C 34293.4 hPa Calm     93 % 0 mm 0.0 W/m2 CLR
21:55 -15.6 °C -16.2 °C 34293.4 hPa Calm     93 % 0 mm 0.0 W/m2 CLR
22:00 -15.6 °C -16.2 °C 34279.9 hPa Calm     93 % 0 mm 0.0 W/m2 CLR
22:05 -15.6 °C -16.2 °C 34279.9 hPa Calm     93 % 7.62 mm 0.0 W/m2 RA
22:10 -15.6 °C -16.2 °C 34279.9 hPa Calm     93 % 7.62 mm 0.0 W/m2 CLR
22:15 -15.6 °C -16.2 °C 34293.4 hPa Calm     93 % 7.62 mm 0.0 W/m2 CLR
22:20 -15.6 °C -16.2 °C 34293.4 hPa Calm     93 % 7.62 mm 0.0 W/m2 CLR
22:25 -15.6 °C -16.2 °C 34293.4 hPa Calm     93 % 7.62 mm 0.0 W/m2 CLR
22:30 -15.6 °C -16.2 °C 34293.4 hPa Calm     93 % 7.62 mm 0.0 W/m2 CLR
22:35 -15.6 °C -16.2 °C 34293.4 hPa Calm     93 % 7.62 mm 0.0 W/m2 CLR
22:40 -15.6 °C -16.2 °C 34293.4 hPa Calm     93 % 7.62 mm 0.0 W/m2 CLR
22:45 -15.6 °C -16.2 °C 34293.4 hPa Calm     93 % 7.62 mm 0.0 W/m2 CLR
22:50 -15.6 °C -16.2 °C 34293.4 hPa Calm     93 % 7.62 mm 0.0 W/m2 CLR
22:55 -15.6 °C -16.2 °C 34293.4 hPa Calm     93 % 7.62 mm 0.0 W/m2 CLR
23:00 -15.6 °C -16.2 °C 34293.4 hPa Calm     93 % 7.62 mm 0.0 W/m2 CLR
23:05 -15.6 °C -16.2 °C 34293.4 hPa Calm     93 % 0 mm 0.0 W/m2 CLR
23:10 -15.6 °C -16.2 °C 34293.4 hPa Calm     93 % 0 mm 0.0 W/m2 CLR
23:15 -15.6 °C -16.2 °C 34293.4 hPa Calm     93 % 0 mm 0.0 W/m2 CLR
23:20 -15.6 °C -16.2 °C 34293.4 hPa NNW 6 km/h 6 km/h 93 % 0 mm 0.0 W/m2 CLR
23:25 -15.6 °C -16.2 °C 34293.4 hPa NNW 9 km/h 9 km/h 93 % 0 mm 0.0 W/m2 CLR
23:30 -15.6 °C -16.2 °C 34293.4 hPa Calm     93 % 0 mm 0.0 W/m2 CLR
23:35 -15.3 °C -15.9 °C 34293.4 hPa Calm     93 % 0 mm 0.0 W/m2 CLR
23:40 -15.3 °C -15.9 °C 34293.4 hPa Calm     93 % 0 mm 0.0 W/m2 CLR
23:45 -15.3 °C -15.9 °C 34279.9 hPa Calm     93 % 0 mm 0.0 W/m2 CLR
23:50 -15.3 °C -15.9 °C 34279.9 hPa North 9 km/h 9 km/h 93 % 0 mm 0.0 W/m2 CLR
23:55 -15.3 °C -15.9 °C 34279.9 hPa Calm     93 % 0 mm 0.0 W/m2 CLR
Lo Temps de Massalio
Compliments of Weather Underground - 1.25 mb